Fulton, Alabama
Current Conditions -  °F | °C
As of 2:53 PM on Tuesday 25 Nov 2014 (Local Time) from KGZH Reporting Station
Few Clouds Few Clouds  
Wind Chill: 60°   Ceiling: Unl
Heat Index: 60°   Visibility: 10mi
Dew Point: 33°   Wind: 6mph
Humidity: 36%   Direction: 340°NNW
Pressure: 30.03"   Gusts: NA
Location:  31.79°N, 87.73°W
Report Text: KGZH 252053Z AUTO 34005KT 10SM FEW120 16/01 A3003 RMK AO2 SLP169 T01560006 56015
Loading
Personal Weather Stations






























Interactive Weather Map New forecast layout! Learn more

10-Day Weather Forecast

Advertisements
Track Severe Weather on mobile